Time;durP1;ratioP1;P1;durP2;ratioP2;P2;SDS_P1;SDS_P2;PMS_P1;PMS_P2;Temp;Humidity;BMP_temperature;BMP_pressure;BME280_temperature;BME280_humidity;BME280_pressure;Samples;Min_cycle;Max_cycle;Signal;HPM_P1;HPM_P2
2022/02/01 00:01:37;;;;;;;38.00;20.50;;;;;;;-5.53;83.01;98519.38;447281;1271;142411;-60
2022/02/01 00:11:54;;;;;;;43.10;22.90;;;;;;;-5.64;83.10;98526.02;445936;1271;142751;-65
2022/02/01 00:42:46;;;;;;;44.50;23.80;;;;;;;-6.04;83.37;98563.08;447373;1270;143247;-64
2022/02/01 00:52:52;;;;;;;40.40;21.90;;;;;;;-6.17;83.34;98572.80;445770;1271;142906;-64
2022/02/01 01:02:56;;;;;;;;;;;;;;;-6.29;83.37;98584.52;445267;1271;142787;-64
2022/02/01 01:13:13;;;;;;;30.20;18.30;;;;;;;-6.37;83.35;98582.73;446681;1271;128981;-63
2022/02/01 01:44:10;;;;;;;31.80;18.70;;;;;;;-6.56;83.48;98610.70;446365;1271;145755;-64
2022/02/01 01:54:17;;;;;;;35.70;20.40;;;;;;;-6.51;84.00;98626.16;447256;1271;143651;-64
2022/02/01 02:04:22;;;;;;;36.00;20.30;;;;;;;-6.40;84.28;98640.00;447239;1271;142917;-63
2022/02/01 02:14:31;;;;;;;41.60;22.50;;;;;;;-6.38;84.27;98645.25;441415;1271;142322;-63
2022/02/01 02:24:41;;;;;;;35.90;20.50;;;;;;;-6.36;84.67;98649.48;430639;1271;142390;-63
2022/02/01 02:34:47;;;;;;;36.80;19.40;;;;;;;-6.33;84.85;98661.23;436270;1270;142512;-63
2022/02/01 02:45:09;;;;;;;;;;;;;;;-6.28;84.95;98674.97;447327;1271;142200;-63
2022/02/01 02:55:15;;;;;;;43.00;22.80;;;;;;;-6.18;85.12;98686.95;438805;1271;129156;-63
2022/02/01 03:05:20;;;;;;;;;;;;;;;-6.10;85.08;98692.33;446630;1271;144811;-63
2022/02/01 03:15:39;;;;;;;40.40;23.60;;;;;;;-6.04;85.13;98692.42;447416;1272;129340;-63
2022/02/01 03:25:45;;;;;;;40.00;22.10;;;;;;;-5.99;85.13;98689.45;447327;1271;143074;-63
2022/02/01 03:35:51;;;;;;;41.10;20.50;;;;;;;-5.98;85.03;98697.96;447132;1271;143672;-64
2022/02/01 03:45:56;;;;;;;40.10;21.40;;;;;;;-6.01;85.05;98711.28;447370;1271;143409;-63
2022/02/01 03:56:01;;;;;;;;;;;;;;;-5.91;85.07;98716.63;446417;1271;142566;-63
2022/02/01 04:06:07;;;;;;;38.00;21.10;;;;;;;-5.74;85.19;98711.67;447323;1271;129531;-63
2022/02/01 04:16:12;;;;;;;37.00;19.60;;;;;;;-5.45;85.41;98704.83;447136;1271;144378;-64
2022/02/01 04:26:18;;;;;;;40.80;19.70;;;;;;;-5.22;85.31;98703.48;446628;1270;143651;-64
2022/02/01 04:36:24;;;;;;;35.80;20.30;;;;;;;-5.05;85.50;98697.11;447100;1271;143424;-64
2022/02/01 04:46:31;;;;;;;41.30;20.70;;;;;;;-4.86;85.71;98695.45;447152;1271;144253;-63
2022/02/01 04:56:37;;;;;;;30.90;18.60;;;;;;;-4.64;85.78;98708.08;445509;1271;144065;-64
2022/02/01 05:06:43;;;;;;;35.80;18.80;;;;;;;-4.48;85.81;98716.04;437739;1271;143280;-62
2022/02/01 05:16:57;;;;;;;;;;;;;;;-4.38;85.90;98719.10;447216;1271;144114;-64
2022/02/01 05:27:05;;;;;;;35.50;19.10;;;;;;;-4.32;85.95;98720.02;447129;1271;186534;-63
2022/02/01 05:37:11;;;;;;;32.90;18.10;;;;;;;-4.31;85.77;98711.63;447138;1271;142547;-63
2022/02/01 05:47:17;;;;;;;32.50;19.40;;;;;;;-4.39;85.69;98730.73;446669;1271;142684;-64
2022/02/01 05:57:25;;;;;;;31.80;19.00;;;;;;;-4.55;85.63;98734.41;447044;1271;143110;-64
2022/02/01 06:07:31;;;;;;;31.60;18.50;;;;;;;-4.52;85.93;98730.61;447322;1270;198475;-64
2022/02/01 06:17:35;;;;;;;;;;;;;;;-4.57;85.71;98731.20;446616;1270;142780;-64
2022/02/01 06:27:45;;;;;;;32.90;19.30;;;;;;;-4.72;85.78;98737.42;447407;1271;129068;-63
2022/02/01 06:37:51;;;;;;;44.90;18.20;;;;;;;-4.67;86.05;98753.41;435823;1271;160385;-63
2022/02/01 06:47:57;;;;;;;34.10;19.20;;;;;;;-4.48;86.09;98754.30;447128;1271;188250;-63
2022/02/01 06:58:02;;;;;;;;;;;;;;;-4.23;85.98;98761.73;431157;1271;143207;-63
2022/02/01 07:08:08;;;;;;;29.00;17.80;;;;;;;-4.02;85.66;98757.12;428873;1271;133081;-63
2022/02/01 07:18:12;;;;;;;;;;;;;;;-4.01;85.54;98760.67;437096;1271;142738;-63
2022/02/01 07:28:20;;;;;;;40.00;21.80;;;;;;;-2.24;86.42;98748.73;447376;1271;130225;-64
2022/02/01 07:38:26;;;;;;;31.80;19.90;;;;;;;0.73;84.27;98735.11;446341;1271;143661;-64
2022/02/01 07:48:32;;;;;;;31.00;18.50;;;;;;;1.03;80.67;98735.98;446413;1271;143323;-63
2022/02/01 07:58:38;;;;;;;30.90;18.40;;;;;;;1.25;80.71;98738.68;433541;1271;143816;-63
2022/02/01 08:08:44;;;;;;;25.30;17.20;;;;;;;3.17;78.49;98749.71;446299;1271;143464;-67
2022/02/01 08:19:01;;;;;;;21.20;15.30;;;;;;;1.84;77.47;98752.27;447164;1271;141459;-58
2022/02/01 08:29:27;;;;;;;25.60;14.70;;;;;;;0.94;77.52;98755.30;446535;1271;141974;-63
2022/02/01 08:39:33;;;;;;;26.20;16.80;;;;;;;0.61;78.47;98741.52;438248;1271;142328;-63
2022/02/01 08:49:39;;;;;;;38.50;16.40;;;;;;;1.60;77.62;98730.99;447035;1271;141554;-64
2022/02/01 08:59:46;;;;;;;22.00;14.60;;;;;;;1.40;76.69;98739.55;446314;1271;142868;-63
2022/02/01 09:09:52;;;;;;;27.40;15.90;;;;;;;0.60;76.68;98745.17;445172;1271;142256;-61
2022/02/01 09:19:59;;;;;;;25.00;16.10;;;;;;;0.35;77.54;98727.64;446323;1271;141752;-66
2022/02/01 09:30:07;;;;;;;23.00;14.60;;;;;;;0.47;77.29;98715.67;447323;1271;142152;-64
2022/02/01 09:40:13;;;;;;;21.30;14.00;;;;;;;0.06;77.36;98710.92;447192;1270;142696;-64
2022/02/01 09:50:19;;;;;;;24.30;14.10;;;;;;;-0.20;78.26;98709.06;446470;1270;143049;-59
2022/02/01 10:00:33;;;;;;;34.30;15.40;;;;;;;-0.11;78.28;98706.35;447365;1270;142862;-57
2022/02/01 10:10:54;;;;;;;20.90;12.00;;;;;;;-0.00;78.25;98700.14;447130;1271;142078;-63
2022/02/01 10:21:06;;;;;;;13.40;8.90;;;;;;;-0.37;77.65;98678.50;446993;1271;143230;-62
2022/02/01 10:31:20;;;;;;;13.00;9.30;;;;;;;-0.52;77.81;98667.98;447045;1271;142770;-62
2022/02/01 10:41:26;;;;;;;17.30;9.80;;;;;;;-0.71;78.15;98649.38;443627;1270;147494;-60
2022/02/01 10:51:32;;;;;;;21.80;10.80;;;;;;;-0.84;78.61;98634.49;440443;1270;141533;-64
2022/02/01 11:01:38;;;;;;;20.90;12.00;;;;;;;-0.84;78.75;98617.65;433326;1271;143329;-63
2022/02/01 11:11:53;;;;;;;19.50;11.40;;;;;;;-0.87;78.82;98609.16;431974;1271;141469;-73
2022/02/01 11:22:01;;;;;;;18.40;10.50;;;;;;;-1.04;79.18;98601.45;434121;1271;141695;-64
2022/02/01 11:32:17;;;;;;;22.20;11.60;;;;;;;-1.10;80.08;98591.17;430786;1271;143084;-63
2022/02/01 11:42:52;;;;;;;25.20;15.00;;;;;;;-1.06;80.70;98562.34;439497;1270;141805;-65
2022/02/01 11:53:00;;;;;;;20.20;12.40;;;;;;;-1.02;81.18;98548.84;435520;1271;141850;-63
2022/02/01 12:03:09;;;;;;;18.90;12.40;;;;;;;-0.98;81.57;98521.36;437690;1271;141511;-62
2022/02/01 12:13:16;;;;;;;18.40;12.40;;;;;;;-0.85;81.74;98507.85;434201;1271;141868;-61
2022/02/01 12:23:26;;;;;;;19.20;12.40;;;;;;;-0.84;82.13;98486.01;438871;1271;141868;-66
2022/02/01 12:33:32;;;;;;;20.20;11.90;;;;;;;-0.67;82.32;98477.02;433932;1271;142279;-66
2022/02/01 12:43:55;;;;;;;20.40;12.20;;;;;;;-0.48;82.35;98460.17;435407;1271;141657;-65
2022/02/01 12:54:01;;;;;;;20.90;13.40;;;;;;;-0.59;82.35;98444.41;434685;1270;142356;-67
2022/02/01 13:04:08;;;;;;;17.40;12.60;;;;;;;-0.64;82.46;98426.88;430821;1271;141688;-64
2022/02/01 13:24:36;;;;;;;24.20;13.50;;;;;;;-0.73;83.28;98405.71;442506;1271;128909;-67
2022/02/01 13:34:44;;;;;;;20.40;12.80;;;;;;;-0.81;83.48;98392.95;440716;1270;141665;-63
2022/02/01 13:44:55;;;;;;;16.00;10.90;;;;;;;-0.86;83.73;98378.00;445546;1271;142470;-64
2022/02/01 13:55:01;;;;;;;19.20;12.80;;;;;;;-0.87;84.04;98359.16;438145;1271;142858;-64
2022/02/01 14:05:18;;;;;;;14.00;10.20;;;;;;;-0.89;84.43;98346.67;430149;1271;145254;-65
2022/02/01 14:26:13;;;;;;;12.20;7.90;;;;;;;-0.86;84.81;98323.36;431158;1270;142459;-66
2022/02/01 14:36:19;;;;;;;15.10;9.30;;;;;;;-0.70;84.71;98317.42;430833;1271;145596;-62
2022/02/01 14:46:25;;;;;;;10.50;7.50;;;;;;;-0.51;84.00;98308.46;431884;1270;143920;-59
2022/02/01 14:56:36;;;;;;;11.90;7.80;;;;;;;-0.52;83.67;98296.12;431209;1273;142561;-67
2022/02/01 15:07:04;;;;;;;14.40;8.60;;;;;;;-0.52;83.41;98288.55;431687;1271;141718;-59
2022/02/01 15:17:14;;;;;;;11.10;7.90;;;;;;;-0.59;83.34;98274.20;431116;1271;142968;-59
2022/02/01 15:27:20;;;;;;;16.30;8.10;;;;;;;-0.72;83.31;98255.45;431296;1272;141962;-64
2022/02/01 15:37:30;;;;;;;16.70;9.40;;;;;;;-0.85;83.73;98241.88;431888;1271;142433;-70
2022/02/01 15:58:01;;;;;;;13.50;9.20;;;;;;;-0.92;83.98;98189.44;430977;1271;184681;-66
2022/02/01 16:08:08;;;;;;;15.00;8.40;;;;;;;-0.97;84.24;98165.21;430698;1270;142484;-67
2022/02/01 16:18:13;;;;;;;16.00;7.50;;;;;;;-0.97;84.49;98155.79;430927;1271;142636;-65
2022/02/01 16:28:19;;;;;;;13.10;8.50;;;;;;;-0.98;84.64;98138.64;431386;1270;142850;-65
2022/02/01 16:38:25;;;;;;;9.60;6.00;;;;;;;-0.97;84.76;98112.84;435068;1271;141624;-67
2022/02/01 16:48:37;;;;;;;16.70;10.70;;;;;;;-0.96;84.92;98086.69;446463;1270;141944;-66
2022/02/01 16:58:50;;;;;;;14.80;11.20;;;;;;;-0.95;84.89;98059.47;441530;1270;143129;-66
2022/02/01 17:08:57;;;;;;;21.20;13.00;;;;;;;-0.93;84.92;98030.71;432581;1271;141120;-66
2022/02/01 17:19:19;;;;;;;20.40;13.60;;;;;;;-0.91;85.15;98003.14;442854;1270;142160;-67
2022/02/01 17:29:25;;;;;;;14.30;11.60;;;;;;;-0.89;85.51;97979.02;430109;1271;142533;-69
2022/02/01 17:39:31;;;;;;;22.10;15.80;;;;;;;-0.86;85.67;97951.20;433167;1271;142692;-67
2022/02/01 17:49:38;;;;;;;18.30;13.10;;;;;;;-0.83;85.55;97922.74;441525;1272;143766;-66
2022/02/01 17:59:47;;;;;;;21.20;11.40;;;;;;;-0.80;85.97;97903.00;435547;1272;142900;-67
2022/02/01 18:09:56;;;;;;;20.20;9.90;;;;;;;-0.76;86.17;97885.80;446409;1271;142814;-66
2022/02/01 18:20:04;;;;;;;38.10;20.70;;;;;;;-0.74;86.20;97856.36;445708;1271;142403;-66
2022/02/01 18:30:18;;;;;;;18.40;9.40;;;;;;;-0.75;86.30;97822.55;435611;1271;143789;-62
2022/02/01 18:40:26;;;;;;;17.50;9.50;;;;;;;-0.80;86.46;97796.32;434485;1271;141548;-71
2022/02/01 18:50:41;;;;;;;23.90;11.40;;;;;;;-0.84;86.55;97775.89;441111;1272;143355;-59
2022/02/01 19:21:42;;;;;;;15.80;10.30;;;;;;;-0.75;86.44;97673.41;436792;1271;142608;-65
2022/02/01 19:31:50;;;;;;;14.90;9.40;;;;;;;-0.76;86.79;97643.05;432302;1272;141488;-67
2022/02/01 19:41:58;;;;;;;16.70;10.50;;;;;;;-0.75;86.84;97613.77;444157;1272;142213;-65
2022/02/01 19:52:05;;;;;;;14.50;9.70;;;;;;;-0.79;87.26;97586.67;431022;1271;141673;-67
2022/02/01 20:02:12;;;;;;;12.00;8.30;;;;;;;-0.82;87.57;97558.98;445455;1271;164071;-67
2022/02/01 20:12:19;;;;;;;9.60;7.20;;;;;;;-0.80;87.89;97541.88;431925;1271;141788;-65
2022/02/01 20:22:28;;;;;;;11.50;8.20;;;;;;;-0.82;87.68;97518.58;436383;1272;141547;-67
2022/02/01 20:32:37;;;;;;;12.10;8.40;;;;;;;-0.81;88.08;97489.84;441938;1271;199783;-66
2022/02/01 20:42:43;;;;;;;11.40;8.00;;;;;;;-0.80;88.07;97455.11;445157;1271;142544;-67
2022/02/01 20:52:50;;;;;;;9.60;7.20;;;;;;;-0.77;88.09;97426.23;443037;1271;142010;-65
2022/02/01 21:02:56;;;;;;;9.50;6.40;;;;;;;-0.77;88.08;97405.13;441095;1273;207652;-66
2022/02/01 21:13:02;;;;;;;11.20;6.60;;;;;;;-0.80;88.39;97388.11;431218;1272;141999;-67
2022/02/01 21:23:11;;;;;;;8.40;6.40;;;;;;;-0.83;88.58;97375.73;431862;1273;142033;-68
2022/02/01 21:33:20;;;;;;;5.70;4.30;;;;;;;-0.83;88.48;97363.88;429864;1272;141636;-67
2022/02/01 21:43:26;;;;;;;6.70;4.60;;;;;;;-0.79;88.64;97335.15;437642;1272;141846;-65
2022/02/01 21:53:31;;;;;;;3.60;3.00;;;;;;;-0.75;88.71;97320.65;436202;1271;141057;-66
2022/02/01 22:03:38;;;;;;;7.60;3.70;;;;;;;-0.73;88.82;97299.08;441366;1272;142250;-66
2022/02/01 22:13:44;;;;;;;4.80;3.50;;;;;;;-0.72;88.63;97280.28;434289;1273;142833;-66
2022/02/01 22:23:49;;;;;;;5.40;3.90;;;;;;;-0.70;89.15;97264.20;446280;1272;143214;-65
2022/02/01 22:33:55;;;;;;;4.20;3.50;;;;;;;-0.66;89.08;97244.77;438961;1271;184162;-65
2022/02/01 22:44:01;;;;;;;4.50;3.70;;;;;;;-0.66;89.08;97230.98;446627;1271;141842;-66
2022/02/01 22:54:07;;;;;;;5.90;4.40;;;;;;;-0.63;89.18;97227.52;447297;1270;142024;-65
2022/02/01 23:04:14;;;;;;;3.30;3.00;;;;;;;-0.62;89.25;97219.75;442155;1272;141630;-66
2022/02/01 23:24:42;;;;;;;5.20;4.70;;;;;;;-0.54;89.27;97219.16;437356;1271;128181;-65
2022/02/01 23:34:56;;;;;;;5.00;4.00;;;;;;;-0.52;89.59;97211.16;440482;1272;141843;-65
2022/02/01 23:55:26;;;;;;;3.40;3.00;;;;;;;-0.40;89.72;97208.02;429953;1271;141837;-64
